createdAt,value
2022-11-06T00:00:31.039Z,12.11
2022-11-06T00:01:33.564Z,12.30
2022-11-06T00:02:35.401Z,11.33
2022-11-06T00:03:37.775Z,11.50
2022-11-06T00:04:39.460Z,11.33
2022-11-06T00:06:01.063Z,11.69
2022-11-06T00:07:02.849Z,11.10
2022-11-06T00:08:04.739Z,11.45
2022-11-06T00:09:10.462Z,11.26
2022-11-06T00:10:13.719Z,11.39
2022-11-06T00:11:17.681Z,11.27
2022-11-06T00:12:19.444Z,11.50
2022-11-06T00:13:21.217Z,11.87
2022-11-06T00:14:23.110Z,11.11
2022-11-06T00:15:24.840Z,11.10
2022-11-06T00:16:26.659Z,11.04
2022-11-06T00:17:28.964Z,10.75
2022-11-06T00:18:30.929Z,11.41
2022-11-06T00:19:32.666Z,10.63
2022-11-06T00:20:34.490Z,10.88
2022-11-06T00:21:37.115Z,10.92
2022-11-06T00:22:38.809Z,10.72
2022-11-06T00:23:41.251Z,11.01
2022-11-06T00:24:42.993Z,11.39
2022-11-06T00:25:44.711Z,11.71
2022-11-06T00:26:49.926Z,11.96
2022-11-06T00:27:55.869Z,11.44
2022-11-06T00:29:00.287Z,11.25
2022-11-06T00:30:05.402Z,10.88
2022-11-06T00:31:12.284Z,10.84
2022-11-06T00:32:14.093Z,10.91
2022-11-06T00:33:15.857Z,11.38
2022-11-06T00:34:17.786Z,11.12
2022-11-06T00:35:19.493Z,10.81
2022-11-06T00:36:23.073Z,10.07
2022-11-06T00:37:24.894Z,10.05
2022-11-06T00:38:26.608Z,10.73
2022-11-06T00:39:28.343Z,10.90
2022-11-06T00:40:30.112Z,10.57
2022-11-06T00:41:31.807Z,10.13
2022-11-06T00:42:35.796Z,10.59
2022-11-06T00:43:37.777Z,9.96
2022-11-06T00:44:39.475Z,9.61
2022-11-06T00:45:41.260Z,9.98
2022-11-06T00:46:43.147Z,10.40
2022-11-06T00:47:44.839Z,10.71
2022-11-06T00:48:47.146Z,10.20
2022-11-06T00:49:49.265Z,10.58
2022-11-06T00:50:51.002Z,9.94
2022-11-06T00:51:52.751Z,10.06
2022-11-06T00:52:55.352Z,10.26
2022-11-06T00:53:59.824Z,9.78
2022-11-06T00:55:01.833Z,10.21
2022-11-06T00:56:09.766Z,10.45
2022-11-06T00:57:11.459Z,9.96
2022-11-06T00:58:13.265Z,10.79
2022-11-06T00:59:15.342Z,10.38
2022-11-06T01:00:20.762Z,11.24
2022-11-06T01:01:28.911Z,11.41
2022-11-06T01:02:30.859Z,10.68
2022-11-06T01:03:32.616Z,10.70
2022-11-06T01:04:34.369Z,11.01
2022-11-06T01:05:36.218Z,11.50
2022-11-06T01:06:43.514Z,11.06
2022-11-06T01:07:45.268Z,11.32
2022-11-06T01:08:48.110Z,10.93
2022-11-06T01:09:49.868Z,10.33
2022-11-06T01:10:53.200Z,11.49
2022-11-06T01:12:14.337Z,11.15
2022-11-06T01:13:17.217Z,10.58
2022-11-06T01:14:20.683Z,11.36
2022-11-06T01:15:22.415Z,10.75
2022-11-06T01:16:25.545Z,11.30
2022-11-06T01:17:28.926Z,11.34
2022-11-06T01:18:30.828Z,11.84
2022-11-06T01:19:32.642Z,11.43
2022-11-06T01:20:34.345Z,11.33
2022-11-06T01:21:39.060Z,11.28
2022-11-06T01:22:40.951Z,11.31
2022-11-06T01:23:43.907Z,11.36
2022-11-06T01:24:45.853Z,11.56
2022-11-06T01:26:01.759Z,11.62
2022-11-06T01:28:26.301Z,11.07
2022-11-06T01:29:28.124Z,11.48
2022-11-06T01:30:29.841Z,11.06
2022-11-06T01:31:33.466Z,10.96
2022-11-06T01:32:35.191Z,10.90
2022-11-06T01:33:37.188Z,11.09
2022-11-06T01:34:39.105Z,11.33
2022-11-06T01:35:49.000Z,12.18
2022-11-06T01:36:50.660Z,11.33
2022-11-06T01:37:52.438Z,11.17
2022-11-06T01:38:58.529Z,10.96
2022-11-06T01:40:00.363Z,10.96
2022-11-06T01:41:02.085Z,10.84
2022-11-06T01:42:03.957Z,10.73
2022-11-06T01:43:14.697Z,11.16
2022-11-06T01:44:41.201Z,11.87
2022-11-06T01:45:47.833Z,10.64
2022-11-06T01:46:49.558Z,11.16
2022-11-06T01:47:51.856Z,10.96
2022-11-06T01:49:00.332Z,11.28
2022-11-06T01:50:08.465Z,11.43
2022-11-06T01:51:13.451Z,10.97
2022-11-06T01:52:17.396Z,11.02
2022-11-06T01:53:19.704Z,11.25
2022-11-06T01:54:24.562Z,11.22
2022-11-06T01:55:32.777Z,11.28
2022-11-06T01:56:37.606Z,11.38
2022-11-06T01:57:39.476Z,11.04
2022-11-06T01:58:44.339Z,10.84
2022-11-06T01:59:48.193Z,11.07
2022-11-06T02:00:50.813Z,11.69
2022-11-06T02:01:52.969Z,11.34
2022-11-06T02:02:55.000Z,11.64
2022-11-06T02:04:03.809Z,11.12
2022-11-06T02:05:06.387Z,10.82
2022-11-06T02:06:10.004Z,12.90
2022-11-06T02:07:13.097Z,13.45
2022-11-06T02:08:18.108Z,13.37
2022-11-06T02:09:20.880Z,14.71
2022-11-06T02:10:23.100Z,15.09
2022-11-06T02:11:25.053Z,15.57
2022-11-06T02:12:57.702Z,15.71
2022-11-06T02:14:14.693Z,17.13
2022-11-06T02:15:43.142Z,16.88
2022-11-06T02:17:09.400Z,15.49
2022-11-06T02:18:25.447Z,15.02
2022-11-06T02:19:46.936Z,16.18
2022-11-06T02:21:24.925Z,14.71
2022-11-06T02:22:56.797Z,15.37
2022-11-06T02:24:21.624Z,15.56
2022-11-06T02:25:52.977Z,16.11
2022-11-06T02:27:22.205Z,15.15
2022-11-06T02:28:35.355Z,15.21
2022-11-06T02:29:55.659Z,15.10
2022-11-06T02:31:05.337Z,15.07
2022-11-06T02:32:18.070Z,15.72
2022-11-06T02:33:37.601Z,16.12
2022-11-06T02:34:55.664Z,15.10
2022-11-06T02:36:23.571Z,15.36
2022-11-06T02:37:36.581Z,15.13
2022-11-06T02:38:46.856Z,15.35
2022-11-06T02:39:55.524Z,15.05
2022-11-06T02:41:04.747Z,14.96
2022-11-06T02:42:11.659Z,14.43
2022-11-06T02:43:17.388Z,14.11
2022-11-06T02:44:25.776Z,14.21
2022-11-06T02:45:32.626Z,14.11
2022-11-06T02:46:48.068Z,15.12
2022-11-06T02:47:54.630Z,14.19
2022-11-06T02:49:04.142Z,15.17
2022-11-06T02:50:15.354Z,14.23
2022-11-06T02:51:25.464Z,13.65
2022-11-06T02:52:34.467Z,14.17
2022-11-06T02:53:41.105Z,14.55
2022-11-06T02:54:51.305Z,13.83
2022-11-06T02:56:00.407Z,14.36
2022-11-06T02:57:08.935Z,14.69
2022-11-06T02:58:33.621Z,14.11
2022-11-06T03:00:05.712Z,15.33
2022-11-06T03:01:25.336Z,14.54
2022-11-06T03:02:56.145Z,14.58
2022-11-06T03:04:10.802Z,14.86
2022-11-06T03:05:21.742Z,15.51
2022-11-06T03:06:29.875Z,15.67
2022-11-06T03:07:39.474Z,15.15
2022-11-06T03:09:14.647Z,15.81
2022-11-06T03:10:17.394Z,15.14
2022-11-06T03:11:25.184Z,17.99
2022-11-06T03:12:38.724Z,22.11
2022-11-06T03:13:54.292Z,22.80
2022-11-06T03:15:05.759Z,24.81
2022-11-06T03:16:23.984Z,18.89
2022-11-06T03:17:31.655Z,15.06
2022-11-06T03:19:05.175Z,15.06
2022-11-06T03:20:29.781Z,15.11
2022-11-06T03:22:05.054Z,17.53
2022-11-06T03:23:18.471Z,18.31
2022-11-06T03:24:31.708Z,18.17
2022-11-06T03:25:47.535Z,16.38
2022-11-06T03:26:53.440Z,15.52
2022-11-06T03:28:15.320Z,14.99
2022-11-06T03:29:19.880Z,14.09
2022-11-06T03:30:21.967Z,13.71
2022-11-06T03:31:36.721Z,14.04
2022-11-06T03:32:54.032Z,14.28
2022-11-06T03:34:05.293Z,13.88
2022-11-06T03:35:30.605Z,14.29
2022-11-06T03:36:44.342Z,14.58
2022-11-06T03:37:57.923Z,15.42
2022-11-06T03:39:06.300Z,19.30
2022-11-06T03:40:15.498Z,21.36
2022-11-06T03:41:36.773Z,22.81
2022-11-06T03:42:41.734Z,19.33
2022-11-06T03:43:47.756Z,19.13
2022-11-06T03:44:59.945Z,22.44
2022-11-06T03:46:06.016Z,23.72
2022-11-06T03:47:24.792Z,25.89
2022-11-06T03:48:34.401Z,27.24
2022-11-06T03:49:43.263Z,36.00
2022-11-06T03:51:03.410Z,36.43
2022-11-06T03:52:43.303Z,36.08
2022-11-06T03:53:52.982Z,31.92
2022-11-06T03:55:07.777Z,33.77
2022-11-06T03:56:33.767Z,29.57
2022-11-06T03:58:01.680Z,26.11
2022-11-06T03:59:08.458Z,22.59
2022-11-06T04:00:12.027Z,23.85
2022-11-06T04:01:19.046Z,24.88
2022-11-06T04:02:26.075Z,23.84
2022-11-06T04:03:51.948Z,25.49
2022-11-06T04:05:10.096Z,23.52
2022-11-06T04:06:32.365Z,20.27
2022-11-06T04:07:41.714Z,19.91
2022-11-06T04:09:05.540Z,18.14
2022-11-06T04:10:30.683Z,17.37
2022-11-06T04:11:55.147Z,17.49
2022-11-06T04:13:47.016Z,15.15
2022-11-06T04:14:54.741Z,13.94
2022-11-06T04:15:56.832Z,13.98
2022-11-06T04:17:03.964Z,13.23
2022-11-06T04:18:17.692Z,12.59
2022-11-06T04:19:22.725Z,13.10
2022-11-06T04:21:01.680Z,12.95
2022-11-06T04:22:39.045Z,12.95
2022-11-06T04:23:46.632Z,13.39
2022-11-06T04:25:21.413Z,12.97
2022-11-06T04:26:35.723Z,12.51
2022-11-06T04:27:54.430Z,13.23
2022-11-06T04:29:18.220Z,13.02
2022-11-06T04:30:20.083Z,12.93
2022-11-06T04:31:43.234Z,12.41
2022-11-06T04:33:00.686Z,12.16
2022-11-06T04:34:24.103Z,11.28
2022-11-06T04:35:37.564Z,11.92
2022-11-06T04:36:49.029Z,11.78
2022-11-06T04:38:29.142Z,11.88
2022-11-06T04:39:51.986Z,12.67
2022-11-06T04:40:56.337Z,12.17
2022-11-06T04:42:19.780Z,12.30
2022-11-06T04:43:31.564Z,11.90
2022-11-06T04:44:39.865Z,12.39
2022-11-06T04:45:48.989Z,12.26
2022-11-06T04:47:04.920Z,12.30
2022-11-06T04:48:08.922Z,11.18
2022-11-06T04:49:13.263Z,11.66
2022-11-06T04:50:19.878Z,12.60
2022-11-06T04:51:28.532Z,14.80
2022-11-06T04:52:30.383Z,16.23
2022-11-06T04:53:34.248Z,18.61
2022-11-06T04:54:36.274Z,20.36
2022-11-06T04:55:46.820Z,18.61
2022-11-06T04:56:48.565Z,18.19
2022-11-06T04:57:50.292Z,18.63
2022-11-06T04:58:53.537Z,19.47
2022-11-06T04:59:56.921Z,16.92
2022-11-06T05:00:58.778Z,15.01
2022-11-06T05:02:00.935Z,14.87
2022-11-06T05:03:02.783Z,13.66
2022-11-06T05:04:04.596Z,14.12
2022-11-06T05:05:06.781Z,14.21
2022-11-06T05:06:08.903Z,13.56
2022-11-06T05:07:13.880Z,13.28
2022-11-06T05:08:20.884Z,12.00
2022-11-06T05:09:23.831Z,12.55
2022-11-06T05:10:25.780Z,12.40
2022-11-06T05:11:27.462Z,12.33
2022-11-06T05:12:29.433Z,13.41
2022-11-06T05:13:31.170Z,12.80
2022-11-06T05:14:33.386Z,13.52
2022-11-06T05:15:35.602Z,14.31
2022-11-06T05:16:37.558Z,14.56
2022-11-06T05:17:39.300Z,15.03
2022-11-06T05:18:41.184Z,15.39
2022-11-06T05:19:42.909Z,15.08
2022-11-06T05:20:44.709Z,14.05
2022-11-06T05:22:45.350Z,13.88
2022-11-06T05:23:47.543Z,13.05
2022-11-06T05:24:49.225Z,12.93
2022-11-06T05:25:50.982Z,13.43
2022-11-06T05:26:58.860Z,12.79
2022-11-06T05:28:05.775Z,13.65
2022-11-06T05:29:07.584Z,13.14
2022-11-06T05:30:09.782Z,13.46
2022-11-06T05:31:11.633Z,15.32
2022-11-06T05:32:13.413Z,20.96
2022-11-06T05:33:15.149Z,25.62
2022-11-06T05:34:16.891Z,28.02
2022-11-06T05:35:20.710Z,30.08
2022-11-06T05:36:22.548Z,32.30
2022-11-06T05:37:24.738Z,19.70
2022-11-06T05:38:26.506Z,17.54
2022-11-06T05:39:28.429Z,13.56
2022-11-06T05:40:30.888Z,14.03
2022-11-06T05:41:32.718Z,13.71
2022-11-06T05:42:38.132Z,13.57
2022-11-06T05:43:39.914Z,13.97
2022-11-06T05:44:41.606Z,14.62
2022-11-06T05:45:43.356Z,13.81
2022-11-06T05:46:49.643Z,13.88
2022-11-06T05:47:51.913Z,13.64
2022-11-06T05:48:53.672Z,14.23
2022-11-06T05:49:55.410Z,13.71
2022-11-06T05:51:02.174Z,13.25
2022-11-06T05:52:04.104Z,13.99
2022-11-06T05:53:05.895Z,14.86
2022-11-06T05:54:07.623Z,14.87
2022-11-06T05:55:14.510Z,15.94
2022-11-06T05:56:17.226Z,17.18
2022-11-06T05:57:19.062Z,23.08
2022-11-06T05:58:20.779Z,20.25
2022-11-06T05:59:22.504Z,21.44
2022-11-06T06:00:24.236Z,20.22
2022-11-06T06:01:26.071Z,18.03
2022-11-06T06:02:27.907Z,16.56
2022-11-06T06:03:29.788Z,17.91
2022-11-06T06:04:31.560Z,18.16
2022-11-06T06:05:33.320Z,15.59
2022-11-06T06:06:35.939Z,14.91
2022-11-06T06:07:37.866Z,14.70
2022-11-06T06:08:39.577Z,13.63
2022-11-06T06:09:41.469Z,13.82
2022-11-06T06:10:44.613Z,13.78
2022-11-06T06:11:46.314Z,13.76
2022-11-06T06:12:51.168Z,14.22
2022-11-06T06:13:52.881Z,14.17
2022-11-06T06:14:54.626Z,15.71
2022-11-06T06:16:01.653Z,14.73
2022-11-06T06:17:03.424Z,15.00
2022-11-06T06:18:06.236Z,15.22
2022-11-06T06:19:07.953Z,14.68
2022-11-06T06:20:10.427Z,15.16
2022-11-06T06:21:12.256Z,14.06
2022-11-06T06:22:14.031Z,13.66
2022-11-06T06:23:15.855Z,13.49
2022-11-06T06:24:17.605Z,12.93
2022-11-06T06:25:22.906Z,13.57
2022-11-06T06:26:24.947Z,13.55
2022-11-06T06:27:27.595Z,13.26
2022-11-06T06:28:29.440Z,13.53
2022-11-06T06:29:31.160Z,13.12
2022-11-06T06:30:33.028Z,13.72
2022-11-06T06:31:34.894Z,13.68
2022-11-06T06:32:36.592Z,13.32
2022-11-06T06:33:38.344Z,13.37
2022-11-06T06:34:40.061Z,13.05
2022-11-06T06:35:41.877Z,14.00
2022-11-06T06:36:43.803Z,14.19
2022-11-06T06:37:53.607Z,14.55
2022-11-06T06:38:55.862Z,15.05
2022-11-06T06:39:57.613Z,17.08
2022-11-06T06:41:04.882Z,17.34
2022-11-06T06:42:06.667Z,17.69
2022-11-06T06:43:08.457Z,18.28
2022-11-06T06:44:10.338Z,16.53
2022-11-06T06:45:12.062Z,15.76
2022-11-06T06:46:13.748Z,14.83
2022-11-06T06:47:19.134Z,14.77
2022-11-06T06:48:20.878Z,15.25
2022-11-06T06:49:22.624Z,16.00
2022-11-06T06:50:24.372Z,15.86
2022-11-06T06:51:26.105Z,15.61
2022-11-06T06:52:27.846Z,16.36
2022-11-06T06:53:30.008Z,15.69
2022-11-06T06:54:31.742Z,16.05
2022-11-06T06:55:33.500Z,16.24
2022-11-06T06:56:35.221Z,16.04
2022-11-06T06:57:36.948Z,15.89
2022-11-06T06:58:38.893Z,16.12
2022-11-06T06:59:40.649Z,17.01
2022-11-06T07:00:42.443Z,17.12
2022-11-06T07:01:44.364Z,17.19
2022-11-06T07:02:46.161Z,16.43
2022-11-06T07:03:47.893Z,16.54
2022-11-06T07:04:49.647Z,16.57
2022-11-06T07:05:51.390Z,17.00
2022-11-06T07:06:54.500Z,17.59
2022-11-06T07:07:57.952Z,16.52
2022-11-06T07:08:59.805Z,16.78
2022-11-06T07:10:01.638Z,17.95
2022-11-06T07:11:07.045Z,17.26
2022-11-06T07:12:08.756Z,16.37
2022-11-06T07:13:10.789Z,15.83
2022-11-06T07:14:13.054Z,16.41
2022-11-06T07:15:15.228Z,17.33
2022-11-06T07:16:17.064Z,18.28
2022-11-06T07:17:18.784Z,18.55
2022-11-06T07:18:20.874Z,18.14
2022-11-06T07:19:22.738Z,17.40
2022-11-06T07:20:24.665Z,16.54
2022-11-06T07:21:26.396Z,17.95
2022-11-06T07:22:35.527Z,18.77
2022-11-06T07:23:39.035Z,20.16
2022-11-06T07:24:40.837Z,23.64
2022-11-06T07:25:42.799Z,20.81
2022-11-06T07:26:44.862Z,16.15
2022-11-06T07:27:46.592Z,13.94
2022-11-06T07:28:48.375Z,12.81
2022-11-06T07:29:50.116Z,12.04
2022-11-06T07:30:51.912Z,11.33
2022-11-06T07:31:53.664Z,12.41
2022-11-06T07:32:55.427Z,12.65
2022-11-06T07:33:57.109Z,11.09
2022-11-06T07:34:58.862Z,12.70
2022-11-06T07:36:09.741Z,13.36
2022-11-06T07:37:11.452Z,13.67
2022-11-06T07:38:13.454Z,11.45
2022-11-06T07:39:15.388Z,10.97
2022-11-06T07:40:17.302Z,10.73
2022-11-06T07:41:19.034Z,10.05
2022-11-06T07:42:20.717Z,10.56
2022-11-06T07:43:33.526Z,11.06
2022-11-06T07:44:35.588Z,11.11
2022-11-06T07:45:38.899Z,11.15
2022-11-06T07:46:40.624Z,12.02
2022-11-06T07:47:42.393Z,12.20
2022-11-06T07:48:44.120Z,11.47
2022-11-06T07:49:50.730Z,11.10
2022-11-06T07:50:52.978Z,13.21
2022-11-06T07:51:54.641Z,12.47
2022-11-06T07:52:56.955Z,11.31
2022-11-06T07:53:58.643Z,12.07
2022-11-06T07:55:00.599Z,11.17
2022-11-06T07:56:02.759Z,11.33
2022-11-06T07:57:04.509Z,11.24
2022-11-06T07:58:06.215Z,12.78
2022-11-06T07:59:07.933Z,13.36
2022-11-06T08:00:10.691Z,14.19
2022-11-06T08:01:18.966Z,14.95
2022-11-06T08:02:21.174Z,13.68
2022-11-06T08:03:25.122Z,15.55
2022-11-06T08:04:26.871Z,15.66
2022-11-06T08:05:28.587Z,14.92
2022-11-06T08:06:30.427Z,15.16
2022-11-06T08:07:32.157Z,24.43
2022-11-06T08:08:33.874Z,37.88
2022-11-06T08:09:35.988Z,22.28
2022-11-06T08:10:40.548Z,15.24
2022-11-06T08:11:43.000Z,14.90
2022-11-06T08:12:44.718Z,15.67
2022-11-06T08:13:46.412Z,15.06
2022-11-06T08:14:48.164Z,14.64
2022-11-06T08:15:49.931Z,15.04
2022-11-06T08:16:51.748Z,15.60
2022-11-06T08:17:53.891Z,14.84
2022-11-06T08:18:55.990Z,17.21
2022-11-06T08:19:57.734Z,19.71
2022-11-06T08:20:59.651Z,18.04
2022-11-06T08:22:01.768Z,16.60
2022-11-06T08:23:05.955Z,16.88
2022-11-06T08:24:07.776Z,17.16
2022-11-06T08:25:09.803Z,17.39
2022-11-06T08:26:12.599Z,17.83
2022-11-06T08:27:14.318Z,18.32
2022-11-06T08:28:16.216Z,18.82
2022-11-06T08:29:18.290Z,18.51
2022-11-06T08:30:20.042Z,18.41
2022-11-06T08:31:21.861Z,17.53
2022-11-06T08:32:23.754Z,17.26
2022-11-06T08:33:25.574Z,16.58
2022-11-06T08:34:27.317Z,17.05
2022-11-06T08:35:29.316Z,16.44
2022-11-06T08:36:31.248Z,16.67
2022-11-06T08:37:33.025Z,15.30
2022-11-06T08:38:35.431Z,14.69
2022-11-06T08:39:37.392Z,14.06
2022-11-06T08:40:39.987Z,13.91
2022-11-06T08:41:42.078Z,14.89
2022-11-06T08:42:44.184Z,14.07
2022-11-06T08:43:45.972Z,13.94
2022-11-06T08:44:47.736Z,13.68
2022-11-06T08:45:49.436Z,13.22
2022-11-06T08:46:52.323Z,12.51
2022-11-06T08:47:54.273Z,12.45
2022-11-06T08:48:55.980Z,11.69
2022-11-06T08:49:58.106Z,10.80
2022-11-06T08:50:59.929Z,10.69
2022-11-06T08:52:01.612Z,9.84
2022-11-06T08:53:04.378Z,10.67
2022-11-06T08:54:06.541Z,12.44
2022-11-06T08:55:08.664Z,13.89
2022-11-06T08:56:10.357Z,13.30
2022-11-06T08:57:12.023Z,12.40
2022-11-06T08:58:14.108Z,12.34
2022-11-06T08:59:15.847Z,13.66
2022-11-06T09:00:17.883Z,11.85
2022-11-06T09:01:19.780Z,12.90
2022-11-06T09:02:21.669Z,10.94
2022-11-06T09:03:23.517Z,9.57
2022-11-06T09:04:25.203Z,8.56
2022-11-06T09:05:27.999Z,6.57
2022-11-06T09:06:29.847Z,5.92
2022-11-06T09:07:31.626Z,6.46
2022-11-06T09:08:33.319Z,6.09
2022-11-06T09:09:35.115Z,5.93
2022-11-06T09:10:39.088Z,5.73
2022-11-06T09:11:40.810Z,5.77
2022-11-06T09:12:42.498Z,5.59
2022-11-06T09:13:44.478Z,5.27
2022-11-06T09:14:46.172Z,5.34
2022-11-06T09:15:47.860Z,4.72
2022-11-06T09:16:49.566Z,4.93
2022-11-06T09:17:51.799Z,4.40
2022-11-06T09:18:57.503Z,4.59
2022-11-06T09:19:59.384Z,4.50
2022-11-06T09:21:01.182Z,4.45
2022-11-06T09:22:02.879Z,4.02
2022-11-06T09:23:06.993Z,4.21
2022-11-06T09:24:09.188Z,4.53
2022-11-06T09:25:11.627Z,4.58
2022-11-06T09:26:13.329Z,3.01
2022-11-06T09:27:15.159Z,2.92
2022-11-06T09:28:17.028Z,3.09
2022-11-06T09:29:18.716Z,3.28
2022-11-06T09:30:22.974Z,3.58
2022-11-06T09:31:24.681Z,3.47
2022-11-06T09:32:26.363Z,4.34
2022-11-06T09:33:28.061Z,4.23
2022-11-06T09:34:30.191Z,3.74
2022-11-06T09:35:34.075Z,3.91
2022-11-06T09:36:36.420Z,4.65
2022-11-06T09:37:38.140Z,6.84
2022-11-06T09:38:39.831Z,6.21
2022-11-06T09:39:41.714Z,4.45
2022-11-06T09:40:49.107Z,4.86
2022-11-06T09:42:49.280Z,4.35
2022-11-06T09:44:19.234Z,4.40
2022-11-06T09:45:26.709Z,4.29
2022-11-06T09:46:45.679Z,3.98
2022-11-06T09:48:00.187Z,4.32
2022-11-06T09:49:13.608Z,4.66
2022-11-06T09:50:22.298Z,5.28
2022-11-06T09:51:42.063Z,5.23
2022-11-06T09:52:51.755Z,4.70
2022-11-06T09:54:01.369Z,4.54
2022-11-06T09:55:10.851Z,4.40
2022-11-06T09:56:14.657Z,4.18
2022-11-06T09:57:21.785Z,4.33
2022-11-06T09:58:32.950Z,3.56
2022-11-06T09:59:37.465Z,3.47
2022-11-06T10:00:40.381Z,4.07
2022-11-06T10:01:47.670Z,3.96
2022-11-06T10:03:02.669Z,3.97
2022-11-06T10:04:05.844Z,3.82
2022-11-06T10:05:21.892Z,4.03
2022-11-06T10:06:25.765Z,4.48
2022-11-06T10:07:33.436Z,4.27
2022-11-06T10:08:35.634Z,5.12
2022-11-06T10:09:37.473Z,5.33
2022-11-06T10:10:50.483Z,5.66
2022-11-06T10:12:05.093Z,5.30
2022-11-06T10:13:27.088Z,4.28
2022-11-06T10:14:47.557Z,4.62
2022-11-06T10:16:22.502Z,4.87
2022-11-06T10:18:05.939Z,3.76
2022-11-06T10:19:34.774Z,4.07
2022-11-06T10:20:54.957Z,3.68
2022-11-06T10:22:16.469Z,3.81
2022-11-06T10:23:27.062Z,4.02
2022-11-06T10:24:44.131Z,4.19
2022-11-06T10:26:05.022Z,4.04
2022-11-06T10:27:18.794Z,3.97
2022-11-06T10:28:40.109Z,3.54
2022-11-06T10:30:18.934Z,3.75
2022-11-06T10:31:48.298Z,4.06
2022-11-06T10:33:27.508Z,3.73
2022-11-06T10:34:36.148Z,3.59
2022-11-06T10:35:47.213Z,3.23
2022-11-06T10:36:55.304Z,3.31
2022-11-06T10:38:18.239Z,3.30
2022-11-06T10:39:25.084Z,3.76
2022-11-06T10:40:31.520Z,3.93
2022-11-06T10:41:38.011Z,3.78
2022-11-06T10:42:41.990Z,3.62
2022-11-06T10:43:53.092Z,3.82
2022-11-06T10:45:05.841Z,3.53
2022-11-06T10:46:25.163Z,3.37
2022-11-06T10:47:43.461Z,3.81
2022-11-06T10:48:52.055Z,3.31
2022-11-06T10:50:01.788Z,3.66
2022-11-06T10:51:42.049Z,4.00
2022-11-06T10:52:51.540Z,3.96
2022-11-06T10:54:29.680Z,3.79
2022-11-06T10:55:44.512Z,3.75
2022-11-06T10:57:20.859Z,3.83
2022-11-06T10:58:28.057Z,3.95
2022-11-06T10:59:30.276Z,4.39
2022-11-06T11:00:33.857Z,4.44
2022-11-06T11:01:38.349Z,4.61
2022-11-06T11:02:58.515Z,4.73
2022-11-06T11:04:01.068Z,4.16
2022-11-06T11:05:02.929Z,4.28
2022-11-06T11:06:05.444Z,4.42
2022-11-06T11:07:20.543Z,5.19
2022-11-06T11:08:40.435Z,4.79
2022-11-06T11:09:42.443Z,4.52
2022-11-06T11:10:55.903Z,5.04
2022-11-06T11:12:05.930Z,5.11
2022-11-06T11:13:20.921Z,4.93
2022-11-06T11:14:26.236Z,4.57
2022-11-06T11:15:33.671Z,5.16
2022-11-06T11:16:39.975Z,5.42
2022-11-06T11:17:43.213Z,5.82
2022-11-06T11:18:49.882Z,5.98
2022-11-06T11:19:51.567Z,5.58
2022-11-06T11:21:27.788Z,6.51
2022-11-06T11:22:33.114Z,5.47
2022-11-06T11:23:35.218Z,6.39
2022-11-06T11:24:36.894Z,6.25
2022-11-06T11:25:38.654Z,6.49
2022-11-06T11:26:47.172Z,6.03
2022-11-06T11:27:49.015Z,6.27
2022-11-06T11:28:55.361Z,5.47
2022-11-06T11:29:58.366Z,5.73
2022-11-06T11:31:13.613Z,5.74
2022-11-06T11:32:20.063Z,5.71
2022-11-06T11:33:26.173Z,6.97
2022-11-06T11:34:32.665Z,6.76
2022-11-06T11:35:36.576Z,7.16
2022-11-06T11:37:21.892Z,6.39
2022-11-06T11:38:26.011Z,6.68
2022-11-06T11:39:34.388Z,6.06
2022-11-06T11:40:38.533Z,5.90
2022-11-06T11:41:40.250Z,5.35
2022-11-06T11:42:41.992Z,5.53
2022-11-06T11:43:44.081Z,5.45
2022-11-06T11:44:45.833Z,5.43
2022-11-06T11:46:17.617Z,5.22
2022-11-06T11:47:24.537Z,5.24
2022-11-06T11:48:26.313Z,4.93
2022-11-06T11:49:33.812Z,3.98
2022-11-06T11:50:36.286Z,4.09
2022-11-06T11:51:44.866Z,4.35
2022-11-06T11:52:52.821Z,4.64
2022-11-06T11:54:06.589Z,4.64
2022-11-06T11:55:18.848Z,4.91
2022-11-06T11:56:49.611Z,4.89
2022-11-06T11:57:48.735Z,5.29
2022-11-06T11:58:55.160Z,5.55
2022-11-06T12:00:05.634Z,5.86
2022-11-06T12:01:09.243Z,5.36
2022-11-06T12:02:27.902Z,4.68
2022-11-06T12:03:52.285Z,4.86
2022-11-06T12:04:59.884Z,5.52
2022-11-06T12:06:12.702Z,4.72
2022-11-06T12:07:32.585Z,4.46
2022-11-06T12:08:34.892Z,3.96
2022-11-06T12:09:44.227Z,4.03
2022-11-06T12:10:46.465Z,4.18
2022-11-06T12:11:48.577Z,4.00
2022-11-06T12:12:53.007Z,2.95
2022-11-06T12:14:26.231Z,2.48
2022-11-06T12:15:31.453Z,3.15
2022-11-06T12:16:33.171Z,3.36
2022-11-06T12:17:40.571Z,4.17
2022-11-06T12:18:55.971Z,4.02
2022-11-06T12:20:03.368Z,3.03
2022-11-06T12:21:20.032Z,2.84
2022-11-06T12:22:33.900Z,3.35
2022-11-06T12:23:51.514Z,4.25
2022-11-06T12:25:00.891Z,6.01
2022-11-06T12:26:22.658Z,4.40
2022-11-06T12:27:34.747Z,3.25
2022-11-06T12:28:40.937Z,2.71
2022-11-06T12:30:03.312Z,2.38
2022-11-06T12:31:25.988Z,2.84
2022-11-06T12:33:01.245Z,2.33
2022-11-06T12:34:16.972Z,2.46
2022-11-06T12:35:37.680Z,2.58
2022-11-06T12:36:46.367Z,2.62
2022-11-06T12:37:59.923Z,2.26
2022-11-06T12:39:10.418Z,2.29
2022-11-06T12:40:25.075Z,2.73
2022-11-06T12:41:32.104Z,3.07
2022-11-06T12:42:36.209Z,3.41
2022-11-06T12:43:42.774Z,6.06
2022-11-06T12:44:47.781Z,4.89
2022-11-06T12:46:02.728Z,4.37
2022-11-06T12:47:41.587Z,3.28
2022-11-06T12:49:08.403Z,2.96
2022-11-06T12:50:36.549Z,2.63
2022-11-06T12:52:09.219Z,2.76
2022-11-06T12:53:31.745Z,2.69
2022-11-06T12:55:00.827Z,2.51
2022-11-06T12:56:47.053Z,2.71
2022-11-06T12:58:15.364Z,2.94
2022-11-06T12:59:36.543Z,3.20
2022-11-06T13:01:11.789Z,3.12
2022-11-06T13:02:22.632Z,3.78
2022-11-06T13:04:00.754Z,4.04
2022-11-06T13:05:15.325Z,6.58
2022-11-06T13:06:55.572Z,6.43
2022-11-06T13:08:15.835Z,4.00
2022-11-06T13:09:26.574Z,4.28
2022-11-06T13:10:31.236Z,4.22
2022-11-06T13:11:47.044Z,3.73
2022-11-06T13:13:15.107Z,3.24
2022-11-06T13:14:30.517Z,3.34
2022-11-06T13:15:49.696Z,2.92
2022-11-06T13:17:17.564Z,3.66
2022-11-06T13:18:28.077Z,4.01
2022-11-06T13:19:48.764Z,4.70
2022-11-06T13:21:06.664Z,4.21
2022-11-06T13:22:36.004Z,3.56
2022-11-06T13:23:47.989Z,3.53
2022-11-06T13:25:15.300Z,3.18
2022-11-06T13:26:36.331Z,3.01
2022-11-06T13:28:28.498Z,2.69
2022-11-06T13:29:31.311Z,3.63
2022-11-06T13:30:38.408Z,5.17
2022-11-06T13:31:47.057Z,4.94
2022-11-06T13:33:17.335Z,4.35
2022-11-06T13:34:29.140Z,4.83
2022-11-06T13:35:35.271Z,4.57
2022-11-06T13:36:37.726Z,3.95
2022-11-06T13:37:43.843Z,3.09
2022-11-06T13:38:55.284Z,3.42
2022-11-06T13:40:06.696Z,6.19
2022-11-06T13:41:17.871Z,6.59
2022-11-06T13:42:36.496Z,6.06
2022-11-06T13:43:48.592Z,4.64
2022-11-06T13:44:53.365Z,3.67
2022-11-06T13:46:24.172Z,3.13
2022-11-06T13:48:01.319Z,2.57
2022-11-06T13:49:38.637Z,3.04
2022-11-06T13:51:09.853Z,4.69
2022-11-06T13:52:40.113Z,4.29
2022-11-06T13:53:48.903Z,5.73
2022-11-06T13:55:25.248Z,7.90
2022-11-06T13:56:58.039Z,7.52
2022-11-06T13:58:17.818Z,20.96
2022-11-06T13:59:34.424Z,61.28
2022-11-06T14:00:59.083Z,130.41
2022-11-06T14:02:06.827Z,220.09
2022-11-06T14:03:52.824Z,36.10
2022-11-06T14:05:38.231Z,102.76
2022-11-06T14:06:42.465Z,90.54
2022-11-06T14:07:47.334Z,225.14
2022-11-06T14:09:18.358Z,26.66
2022-11-06T14:10:24.138Z,8.40
2022-11-06T14:11:30.955Z,6.42
2022-11-06T14:12:32.822Z,15.07
2022-11-06T14:13:36.301Z,7.25
2022-11-06T14:14:38.186Z,4.74
2022-11-06T14:15:41.925Z,3.86
2022-11-06T14:16:43.695Z,4.10
2022-11-06T14:18:04.319Z,4.04
2022-11-06T14:19:23.651Z,6.20
2022-11-06T14:20:37.857Z,10.70
2022-11-06T14:21:39.432Z,12.85
2022-11-06T14:22:41.122Z,11.18
2022-11-06T14:23:43.443Z,9.29
2022-11-06T14:24:45.175Z,19.94
2022-11-06T14:25:59.803Z,12.05
2022-11-06T14:27:06.670Z,4.58
2022-11-06T14:28:09.426Z,4.52
2022-11-06T14:29:41.716Z,10.28
2022-11-06T14:31:11.685Z,13.44
2022-11-06T14:32:10.688Z,8.41
2022-11-06T14:33:41.895Z,8.47
2022-11-06T14:34:44.024Z,9.98
2022-11-06T14:35:50.122Z,24.66
2022-11-06T14:36:51.858Z,19.01
2022-11-06T14:38:09.878Z,10.35
2022-11-06T14:39:13.577Z,18.67
2022-11-06T14:40:15.380Z,18.48
2022-11-06T14:41:35.286Z,13.35
2022-11-06T14:42:44.189Z,10.26
2022-11-06T14:43:52.665Z,10.18
2022-11-06T14:45:08.886Z,10.02
2022-11-06T14:46:23.749Z,8.26
2022-11-06T14:47:32.069Z,9.77
2022-11-06T14:48:39.839Z,9.17
2022-11-06T14:49:50.967Z,9.54
2022-11-06T14:50:52.877Z,11.10
2022-11-06T14:52:08.222Z,13.01
2022-11-06T14:53:24.218Z,12.70
2022-11-06T14:54:26.165Z,20.23
2022-11-06T14:55:39.838Z,63.54
2022-11-06T14:56:41.664Z,89.00
2022-11-06T14:57:48.955Z,97.84